Time;durP1;ratioP1;P1;durP2;ratioP2;P2;SDS_P1;SDS_P2;PMS_P1;PMS_P2;Temp;Humidity;BMP_temperature;BMP_pressure;BME280_temperature;BME280_humidity;BME280_pressure;Samples;Min_cycle;Max_cycle;Signal;HPM_P1;HPM_P2
2023/04/19 00:01:02;;;;;;;13.55;10.40;;;;;11.30;99181.00;;;;5052509;28;20044;-59
2023/04/19 00:03:29;;;;;;;15.60;10.65;;;;;11.30;99177.00;;;;5052387;28;20070;-61
2023/04/19 00:05:58;;;;;;;15.38;10.63;;;;;11.40;99179.00;;;;5052277;28;20068;-61
2023/04/19 00:08:25;;;;;;;14.07;9.25;;;;;11.30;99180.00;;;;5052367;28;20040;-61
2023/04/19 00:10:52;;;;;;;11.48;9.57;;;;;11.30;99178.00;;;;5051941;28;20095;-60
2023/04/19 00:13:18;;;;;;;13.90;10.77;;;;;11.30;99176.00;;;;5052309;28;20379;-60
2023/04/19 00:15:45;;;;;;;15.95;10.38;;;;;11.30;99175.00;;;;5052407;28;20037;-58
2023/04/19 00:18:11;;;;;;;14.30;9.32;;;;;11.30;99169.00;;;;5052161;28;20490;-60
2023/04/19 00:20:38;;;;;;;11.93;9.10;;;;;11.20;99178.00;;;;5052012;28;20052;-60
2023/04/19 00:23:05;;;;;;;10.40;8.68;;;;;11.20;99173.00;;;;5050967;28;20045;-59
2023/04/19 00:25:33;;;;;;;13.35;10.02;;;;;11.20;99173.00;;;;5051984;28;20049;-59
2023/04/19 00:28:00;;;;;;;11.45;8.95;;;;;11.20;99166.00;;;;5052025;28;20048;-60
2023/04/19 00:30:26;;;;;;;12.38;10.10;;;;;11.20;99172.00;;;;5052016;28;20048;-60
2023/04/19 00:32:53;;;;;;;12.48;9.43;;;;;11.20;99174.00;;;;5050786;28;20041;-59
2023/04/19 00:35:20;;;;;;;11.43;9.43;;;;;11.10;99169.00;;;;5051989;28;20103;-59
2023/04/19 00:37:46;;;;;;;11.45;8.57;;;;;11.10;99170.00;;;;5052337;28;20437;-61
2023/04/19 00:40:13;;;;;;;12.57;8.75;;;;;11.20;99169.00;;;;5050671;28;20131;-59
2023/04/19 00:42:39;;;;;;;11.32;8.43;;;;;11.10;99170.00;;;;5050720;28;20049;-60
2023/04/19 00:45:06;;;;;;;11.82;8.77;;;;;11.10;99170.00;;;;5051867;28;20120;-60
2023/04/19 00:47:35;;;;;;;10.77;8.43;;;;;11.10;99166.00;;;;5050867;28;20045;-60
2023/04/19 00:50:03;;;;;;;10.35;8.10;;;;;11.10;99162.00;;;;5051890;28;20103;-60
2023/04/19 00:52:32;;;;;;;10.52;8.68;;;;;11.00;99159.00;;;;5051694;28;20067;-60
2023/04/19 00:54:58;;;;;;;13.13;9.07;;;;;11.10;99157.00;;;;5051883;28;20098;-58
2023/04/19 00:57:28;;;;;;;11.63;9.40;;;;;11.00;99175.00;;;;5051829;28;20041;-60
2023/04/19 00:59:55;;;;;;;12.55;9.70;;;;;11.00;99157.00;;;;5051422;28;20040;-58
2023/04/19 01:02:22;;;;;;;12.98;9.45;;;;;11.00;99161.00;;;;5050418;28;20098;-60
2023/04/19 01:04:49;;;;;;;12.38;9.57;;;;;11.00;99159.00;;;;5050410;28;20052;-60
2023/04/19 01:07:17;;;;;;;14.30;9.90;;;;;11.00;99161.00;;;;5050318;28;20079;-60
2023/04/19 01:09:44;;;;;;;13.35;10.25;;;;;10.90;99156.00;;;;5053604;28;20516;-59
2023/04/19 01:12:10;;;;;;;11.93;9.15;;;;;10.90;99155.00;;;;5054301;28;20431;-60
2023/04/19 01:14:37;;;;;;;12.25;9.07;;;;;10.90;99150.00;;;;5054262;28;20049;-60
2023/04/19 01:17:04;;;;;;;11.45;8.80;;;;;10.90;99154.00;;;;5055575;28;20049;-60
2023/04/19 01:19:32;;;;;;;13.48;8.70;;;;;10.90;99143.00;;;;5053976;28;20049;-60
2023/04/19 01:22:03;;;;;;;12.18;9.00;;;;;10.90;99147.00;;;;5053930;28;20072;-58
2023/04/19 01:24:29;;;;;;;11.18;8.88;;;;;10.80;99153.00;;;;5054119;28;20448;-59
2023/04/19 01:26:56;;;;;;;11.95;9.43;;;;;10.80;99142.00;;;;5055113;28;20041;-58
2023/04/19 01:29:22;;;;;;;10.98;8.90;;;;;10.90;99146.00;;;;5053696;28;20055;-59
2023/04/19 01:31:52;;;;;;;12.05;9.05;;;;;10.80;99150.00;;;;5055162;28;20045;-58
2023/04/19 01:34:19;;;;;;;10.80;8.65;;;;;10.80;99138.00;;;;5055163;28;20132;-58
2023/04/19 01:36:46;;;;;;;10.27;7.88;;;;;10.80;99138.00;;;;5055146;28;20065;-60
2023/04/19 01:39:12;;;;;;;11.95;8.85;;;;;10.80;99133.00;;;;5053588;28;20144;-59
2023/04/19 01:41:39;;;;;;;11.27;7.80;;;;;10.80;99129.00;;;;5054910;28;20094;-59
2023/04/19 01:44:08;;;;;;;13.05;8.48;;;;;10.80;99126.00;;;;5055021;28;20036;-60
2023/04/19 01:46:37;;;;;;;11.38;8.90;;;;;10.80;99129.00;;;;5053613;28;20071;-58
2023/04/19 01:49:04;;;;;;;9.63;8.32;;;;;10.80;99125.00;;;;5053383;28;20099;-60
2023/04/19 01:51:31;;;;;;;10.85;8.50;;;;;10.80;99120.00;;;;5054710;28;20049;-60
2023/04/19 01:54:00;;;;;;;10.70;8.50;;;;;10.80;99122.00;;;;5053550;28;20060;-60
2023/04/19 01:56:27;;;;;;;9.60;7.60;;;;;10.80;99121.00;;;;5053501;28;20087;-59
2023/04/19 01:58:53;;;;;;;11.23;8.48;;;;;10.70;99121.00;;;;5053202;28;20525;-59
2023/04/19 02:01:20;;;;;;;12.07;8.25;;;;;10.70;99116.00;;;;5053367;28;20162;-59
2023/04/19 02:03:46;;;;;;;10.32;7.93;;;;;10.80;99106.00;;;;5054537;28;20131;-60
2023/04/19 02:06:13;;;;;;;12.13;8.30;;;;;10.80;99116.00;;;;5054427;28;20045;-58
2023/04/19 02:08:41;;;;;;;9.70;7.93;;;;;10.80;99110.00;;;;5054247;28;20047;-58
2023/04/19 02:11:09;;;;;;;9.65;7.78;;;;;10.80;99106.00;;;;5053292;28;20505;-59
2023/04/19 02:13:36;;;;;;;10.20;8.00;;;;;10.80;99103.00;;;;5053178;28;20498;-61
2023/04/19 02:16:05;;;;;;;10.00;7.55;;;;;10.70;99101.00;;;;5053093;28;20048;-61
2023/04/19 02:18:32;;;;;;;10.77;8.40;;;;;10.70;99098.00;;;;5036322;28;20049;-61
2023/04/19 02:20:59;;;;;;;8.95;7.57;;;;;10.70;99105.00;;;;5053623;28;20391;-61
2023/04/19 02:23:25;;;;;;;12.10;7.95;;;;;10.70;99099.00;;;;5053157;28;20056;-61
2023/04/19 02:25:52;;;;;;;12.13;8.00;;;;;10.70;99099.00;;;;5052905;28;20480;-61
2023/04/19 02:28:19;;;;;;;9.60;7.60;;;;;10.80;99100.00;;;;5052769;28;20056;-61
2023/04/19 02:30:45;;;;;;;9.40;7.70;;;;;10.80;99100.00;;;;5053777;28;20045;-61
2023/04/19 02:33:12;;;;;;;11.90;8.20;;;;;10.80;99094.00;;;;5054000;28;20042;-61
2023/04/19 02:35:39;;;;;;;12.07;8.38;;;;;10.80;99093.00;;;;5052629;28;20045;-61
2023/04/19 02:38:05;;;;;;;10.70;7.97;;;;;10.80;99100.00;;;;5052626;28;20045;-62
2023/04/19 02:40:32;;;;;;;8.90;6.90;;;;;10.80;99099.00;;;;5053881;28;20037;-60
2023/04/19 02:42:58;;;;;;;10.50;7.47;;;;;10.70;99099.00;;;;5053792;28;20579;-59
2023/04/19 02:45:25;;;;;;;9.18;7.07;;;;;10.70;99098.00;;;;5053953;28;20052;-60
2023/04/19 02:47:53;;;;;;;10.88;7.10;;;;;10.60;99103.00;;;;5052628;28;20135;-59
2023/04/19 02:50:20;;;;;;;8.43;6.88;;;;;10.70;99104.00;;;;5052091;28;20075;-59
2023/04/19 02:52:49;;;;;;;8.95;6.65;;;;;10.70;99099.00;;;;5052288;28;20048;-59
2023/04/19 02:55:16;;;;;;;8.90;6.40;;;;;10.70;99098.00;;;;5052356;28;20055;-60
2023/04/19 02:57:45;;;;;;;8.40;6.55;;;;;10.70;99098.00;;;;5052291;28;20115;-60
2023/04/19 03:00:12;;;;;;;9.32;7.18;;;;;10.80;99096.00;;;;5052099;28;20080;-59
2023/04/19 03:02:44;;;;;;;9.63;6.70;;;;;10.70;99096.00;;;;5052105;28;20075;-61
2023/04/19 03:05:11;;;;;;;8.25;6.88;;;;;10.80;99102.00;;;;5052154;28;20052;-59
2023/04/19 03:07:38;;;;;;;8.77;6.47;;;;;10.70;99105.00;;;;5052064;28;20135;-59
2023/04/19 03:10:05;;;;;;;12.35;6.45;;;;;10.70;99092.00;;;;5053169;28;20045;-61
2023/04/19 03:12:32;;;;;;;9.93;6.35;;;;;10.60;99092.00;;;;5051994;28;20094;-58
2023/04/19 03:14:58;;;;;;;8.10;6.82;;;;;10.60;99090.00;;;;5052280;28;20079;-59
2023/04/19 03:17:25;;;;;;;7.72;6.25;;;;;10.60;99086.00;;;;5031799;28;20133;-60
2023/04/19 03:19:52;;;;;;;8.57;6.60;;;;;10.60;99080.00;;;;5049085;28;20140;-60
2023/04/19 03:22:19;;;;;;;10.85;8.77;;;;;10.60;99076.00;;;;5032048;28;20068;-60
2023/04/19 03:24:46;;;;;;;13.55;9.95;;;;;10.60;99090.00;;;;5031942;28;20049;-60
2023/04/19 03:27:20;;;;;;;8.20;6.50;;;;;10.70;99086.00;;;;5031950;28;20045;-57
2023/04/19 03:29:52;;;;;;;9.80;6.50;;;;;10.80;99080.00;;;;5031775;28;20087;-59
2023/04/19 03:32:19;;;;;;;11.77;6.57;;;;;10.70;99081.00;;;;5031430;28;20076;-60
2023/04/19 03:34:45;;;;;;;8.13;6.43;;;;;10.70;99081.00;;;;5034459;28;20499;-61
2023/04/19 03:37:14;;;;;;;8.50;6.35;;;;;10.70;99078.00;;;;5033299;28;20453;-61
2023/04/19 03:39:41;;;;;;;9.10;6.38;;;;;10.60;99076.00;;;;5032685;28;20069;-57
2023/04/19 03:42:12;;;;;;;10.63;6.22;;;;;10.70;99071.00;;;;5033115;28;20041;-61
2023/04/19 03:44:54;;;;;;;8.23;6.32;;;;;10.60;99074.00;;;;5032772;28;20461;-61
2023/04/19 03:47:23;;;;;;;10.55;6.90;;;;;10.60;99067.00;;;;5032689;28;20107;-62
2023/04/19 03:49:54;;;;;;;8.38;6.88;;;;;10.60;99067.00;;;;5032424;28;20052;-60
2023/04/19 03:52:20;;;;;;;8.20;7.03;;;;;10.50;99065.00;;;;5032617;28;20041;-60
2023/04/19 03:54:47;;;;;;;10.45;7.35;;;;;10.50;99066.00;;;;5032643;28;20042;-60
2023/04/19 03:57:24;;;;;;;9.80;7.13;;;;;10.60;99053.00;;;;5033496;28;20119;-60
2023/04/19 03:59:52;;;;;;;8.32;6.90;;;;;10.60;99057.00;;;;5032668;28;20103;-62
2023/04/19 04:02:19;;;;;;;9.50;7.15;;;;;10.60;99060.00;;;;5032733;28;20136;-60
2023/04/19 04:04:45;;;;;;;9.73;7.13;;;;;10.60;99058.00;;;;5032996;28;20103;-61
2023/04/19 04:07:12;;;;;;;7.88;6.30;;;;;10.60;99056.00;;;;5032386;28;20045;-58
2023/04/19 04:09:39;;;;;;;7.35;6.43;;;;;10.60;99056.00;;;;5048236;28;20517;-62
2023/04/19 04:12:05;;;;;;;8.93;6.50;;;;;10.60;99049.00;;;;5033476;28;20494;-61
2023/04/19 04:14:32;;;;;;;7.78;6.15;;;;;10.60;99052.00;;;;5032203;28;20049;-62
2023/04/19 04:16:59;;;;;;;9.07;6.63;;;;;10.50;99055.00;;;;5031918;28;20045;-59
2023/04/19 04:19:25;;;;;;;10.88;6.63;;;;;10.60;99056.00;;;;5031900;28;20052;-60
2023/04/19 04:21:53;;;;;;;8.73;6.53;;;;;10.60;99058.00;;;;5032104;28;20045;-61
2023/04/19 04:24:21;;;;;;;8.75;6.40;;;;;10.70;99057.00;;;;5031585;28;20056;-60
2023/04/19 04:27:19;;;;;;;8.57;6.80;;;;;10.60;99059.00;;;;5034244;28;20418;-60
2023/04/19 04:29:48;;;;;;;8.05;6.90;;;;;10.60;99053.00;;;;5048365;28;20045;-60
2023/04/19 04:32:17;;;;;;;8.52;6.13;;;;;10.60;99052.00;;;;5031232;28;20163;-60
2023/04/19 04:34:43;;;;;;;7.75;6.22;;;;;10.60;99058.00;;;;5032917;28;20045;-60
2023/04/19 04:37:16;;;;;;;9.57;6.50;;;;;10.50;99054.00;;;;5031958;28;20505;-60
2023/04/19 04:39:43;;;;;;;11.77;7.20;;;;;10.60;99059.00;;;;5031364;28;20076;-60
2023/04/19 04:42:11;;;;;;;8.70;6.70;;;;;10.70;99062.00;;;;5031126;28;20132;-59
2023/04/19 04:44:37;;;;;;;9.15;6.82;;;;;10.60;99056.00;;;;5053703;28;20140;-59
2023/04/19 04:47:06;;;;;;;9.00;6.80;;;;;10.60;99049.00;;;;5054417;28;20041;-60
2023/04/19 04:49:38;;;;;;;11.30;7.10;;;;;10.60;99055.00;;;;5037671;28;20045;-59
2023/04/19 04:52:07;;;;;;;9.50;6.68;;;;;10.60;99059.00;;;;5037540;28;20042;-60
2023/04/19 04:54:41;;;;;;;11.35;6.70;;;;;10.70;99060.00;;;;5037493;28;20049;-59
2023/04/19 04:57:18;;;;;;;8.57;6.25;;;;;10.60;99064.00;;;;5037583;28;20088;-60
2023/04/19 04:59:46;;;;;;;10.63;7.35;;;;;10.60;99067.00;;;;5037238;28;20047;-60
2023/04/19 05:02:15;;;;;;;12.82;9.57;;;;;10.60;99061.00;;;;5054012;28;20052;-60
2023/04/19 05:04:42;;;;;;;17.55;11.82;;;;;10.70;99062.00;;;;5037495;28;20599;-61
2023/04/19 05:07:09;;;;;;;9.30;6.57;;;;;10.70;99066.00;;;;5037323;28;20068;-60
2023/04/19 05:09:36;;;;;;;7.53;6.40;;;;;10.60;99063.00;;;;5037155;28;20460;-60
2023/04/19 05:12:03;;;;;;;10.45;6.90;;;;;10.60;99065.00;;;;5036967;28;20506;-60
2023/04/19 05:14:30;;;;;;;7.35;6.45;;;;;10.60;99060.00;;;;5037247;28;20056;-59
2023/04/19 05:16:57;;;;;;;8.90;6.55;;;;;10.60;99061.00;;;;5037185;28;20045;-59
2023/04/19 05:19:23;;;;;;;9.68;6.38;;;;;10.60;99070.00;;;;5038241;28;20053;-58
2023/04/19 05:21:56;;;;;;;9.27;6.43;;;;;10.70;99067.00;;;;5037240;28;20148;-59
2023/04/19 05:24:22;;;;;;;8.90;6.35;;;;;10.70;99066.00;;;;5038456;28;20486;-60
2023/04/19 05:26:50;;;;;;;8.32;6.93;;;;;10.70;99077.00;;;;5037100;28;20525;-60
2023/04/19 05:29:17;;;;;;;10.38;7.20;;;;;10.70;99080.00;;;;5036880;28;20499;-60
2023/04/19 05:31:49;;;;;;;7.78;6.43;;;;;10.70;99070.00;;;;5037010;28;20049;-59
2023/04/19 05:34:20;;;;;;;10.52;6.90;;;;;10.80;99073.00;;;;5037148;28;20045;-60
2023/04/19 05:36:50;;;;;;;12.40;7.50;;;;;10.80;99072.00;;;;5036987;28;20045;-60
2023/04/19 05:39:17;;;;;;;9.77;7.13;;;;;10.90;99076.00;;;;5036971;28;20437;-60
2023/04/19 05:41:43;;;;;;;11.23;7.38;;;;;10.90;99070.00;;;;5036888;28;20057;-59
2023/04/19 05:44:10;;;;;;;7.63;6.38;;;;;10.90;99070.00;;;;5038168;28;20045;-60
2023/04/19 05:46:37;;;;;;;8.98;6.97;;;;;10.90;99072.00;;;;5036863;28;20046;-60
2023/04/19 05:49:05;;;;;;;8.68;7.18;;;;;10.90;99070.00;;;;5036632;28;20525;-60
2023/04/19 05:51:50;;;;;;;9.77;7.05;;;;;11.00;99074.00;;;;5038390;28;20107;-61
2023/04/19 05:54:35;;;;;;;9.57;6.78;;;;;11.00;99078.00;;;;5036804;28;20053;-60
2023/04/19 05:57:03;;;;;;;10.07;7.00;;;;;11.10;99071.00;;;;5033632;28;20049;-60
2023/04/19 05:59:30;;;;;;;9.77;7.25;;;;;11.10;99075.00;;;;5033542;28;20045;-60
2023/04/19 06:01:57;;;;;;;10.25;7.25;;;;;11.20;99075.00;;;;5033967;28;20049;-59
2023/04/19 06:04:23;;;;;;;9.75;6.95;;;;;11.20;99076.00;;;;5033787;28;20045;-60
2023/04/19 06:06:50;;;;;;;10.40;7.88;;;;;11.30;99073.00;;;;5034045;28;20052;-60
2023/04/19 06:09:17;;;;;;;10.02;7.38;;;;;11.30;99075.00;;;;5044425;28;20044;-60
2023/04/19 06:11:44;;;;;;;25.88;15.50;;;;;11.20;99078.00;;;;5044744;28;20081;-60
2023/04/19 06:14:17;;;;;;;10.10;7.68;;;;;11.30;99068.00;;;;5044536;28;20046;-59
2023/04/19 06:16:45;;;;;;;9.88;7.20;;;;;11.20;99076.00;;;;5045929;28;20045;-61
2023/04/19 06:19:11;;;;;;;9.77;7.85;;;;;11.30;99079.00;;;;5045482;28;20538;-61
2023/04/19 06:21:38;;;;;;;10.32;7.57;;;;;11.40;99080.00;;;;5030001;28;20212;-60
2023/04/19 06:24:05;;;;;;;9.77;7.57;;;;;11.50;99078.00;;;;5046897;28;20075;-60
2023/04/19 06:26:32;;;;;;;11.05;7.70;;;;;11.60;99077.00;;;;5029677;28;20057;-61
2023/04/19 06:28:59;;;;;;;13.20;9.23;;;;;11.70;99078.00;;;;5046308;28;20052;-61
2023/04/19 06:31:25;;;;;;;10.93;8.32;;;;;11.90;99074.00;;;;5047048;28;20064;-61
2023/04/19 06:33:52;;;;;;;11.48;7.95;;;;;12.00;99073.00;;;;5041894;28;20068;-60
2023/04/19 06:36:19;;;;;;;10.63;8.25;;;;;12.10;99071.00;;;;5034958;28;20049;-60
2023/04/19 06:38:45;;;;;;;9.73;7.70;;;;;12.10;99080.00;;;;5034888;28;20041;-60
2023/04/19 06:41:12;;;;;;;11.13;7.47;;;;;12.20;99078.00;;;;5035428;28;20112;-60
2023/04/19 06:43:39;;;;;;;11.60;8.10;;;;;12.10;99068.00;;;;5034582;28;20107;-61
2023/04/19 06:46:06;;;;;;;11.25;7.93;;;;;12.20;99071.00;;;;5033208;28;20080;-61
2023/04/19 06:48:33;;;;;;;12.45;8.38;;;;;12.20;99074.00;;;;5032777;28;20052;-60
2023/04/19 06:51:00;;;;;;;10.57;8.00;;;;;12.20;99078.00;;;;5016895;28;20057;-60
2023/04/19 06:53:27;;;;;;;8.90;7.10;;;;;12.20;99080.00;;;;5033097;28;20084;-60
2023/04/19 06:56:00;;;;;;;12.48;8.77;;;;;12.20;99078.00;;;;5032766;28;20103;-59
2023/04/19 06:58:27;;;;;;;11.40;8.90;;;;;12.20;99077.00;;;;5032503;28;20084;-58
2023/04/19 07:00:54;;;;;;;12.65;8.23;;;;;12.20;99075.00;;;;5049055;28;20060;-59
2023/04/19 07:03:21;;;;;;;8.95;7.90;;;;;12.30;99067.00;;;;5033828;28;20052;-59
2023/04/19 07:05:48;;;;;;;10.15;7.43;;;;;12.40;99086.00;;;;5033818;28;20132;-59
2023/04/19 07:08:14;;;;;;;10.77;8.07;;;;;12.40;99083.00;;;;5033801;28;20037;-59
2023/04/19 07:10:42;;;;;;;10.80;8.45;;;;;12.50;99069.00;;;;5033273;28;20056;-59
2023/04/19 07:13:12;;;;;;;10.93;8.50;;;;;12.50;99066.00;;;;5033468;28;20045;-59
2023/04/19 07:15:38;;;;;;;12.25;8.15;;;;;12.60;99070.00;;;;5033461;28;20045;-60
2023/04/19 07:18:06;;;;;;;10.95;8.73;;;;;12.70;99069.00;;;;5035560;28;20041;-61
2023/04/19 07:20:33;;;;;;;11.38;7.82;;;;;12.80;99068.00;;;;5032132;28;20132;-60
2023/04/19 07:22:59;;;;;;;12.60;8.88;;;;;12.80;99057.00;;;;5033251;28;20451;-60
2023/04/19 07:25:26;;;;;;;10.77;8.27;;;;;13.00;99059.00;;;;5032000;28;20053;-60
2023/04/19 07:27:53;;;;;;;11.63;8.85;;;;;13.30;99057.00;;;;5032856;28;20046;-60
2023/04/19 07:30:20;;;;;;;10.55;8.20;;;;;13.40;99062.00;;;;5032841;28;20049;-60
2023/04/19 07:32:47;;;;;;;13.20;7.60;;;;;13.50;99056.00;;;;5032957;28;20477;-60
2023/04/19 07:35:14;;;;;;;10.77;8.10;;;;;13.50;99058.00;;;;5032989;28;20410;-60
2023/04/19 07:37:41;;;;;;;12.93;8.23;;;;;13.60;99053.00;;;;5033039;28;20037;-60
2023/04/19 07:40:08;;;;;;;13.88;8.45;;;;;13.70;99061.00;;;;5032665;28;20475;-61
2023/04/19 07:42:34;;;;;;;10.32;7.60;;;;;13.70;99054.00;;;;5032821;28;20049;-61
2023/04/19 07:45:01;;;;;;;11.30;7.60;;;;;13.70;99057.00;;;;5032893;28;20052;-61
2023/04/19 07:47:27;;;;;;;10.18;7.63;;;;;13.70;99074.00;;;;5032673;28;20053;-61
2023/04/19 07:49:54;;;;;;;10.65;8.27;;;;;13.70;99062.00;;;;5044247;28;20052;-60
2023/04/19 07:52:21;;;;;;;12.20;8.65;;;;;13.70;99063.00;;;;5052675;28;20052;-60
2023/04/19 07:54:47;;;;;;;10.38;7.55;;;;;13.60;99064.00;;;;5053025;28;20052;-60
2023/04/19 07:57:14;;;;;;;10.65;8.20;;;;;13.50;99063.00;;;;5054448;28;20041;-60
2023/04/19 07:59:40;;;;;;;11.32;8.30;;;;;13.40;99062.00;;;;5053964;28;20045;-61
2023/04/19 08:02:07;;;;;;;10.98;8.35;;;;;13.50;99067.00;;;;5053089;28;20526;-61
2023/04/19 08:04:34;;;;;;;10.90;8.02;;;;;13.40;99066.00;;;;5052664;28;20049;-60
2023/04/19 08:07:02;;;;;;;11.82;7.93;;;;;13.30;99060.00;;;;5052546;28;20045;-60
2023/04/19 08:09:29;;;;;;;10.70;8.23;;;;;13.20;99057.00;;;;5052348;28;20040;-61
2023/04/19 08:11:56;;;;;;;13.35;8.82;;;;;13.20;99060.00;;;;5052402;28;20051;-60
2023/04/19 08:14:23;;;;;;;11.55;8.57;;;;;13.20;99057.00;;;;5051737;28;20055;-61
2023/04/19 08:17:09;;;;;;;12.80;8.93;;;;;13.20;99061.00;;;;5052612;28;20051;-60
2023/04/19 08:19:52;;;;;;;10.93;8.25;;;;;13.10;99067.00;;;;5052893;28;20048;-60
2023/04/19 08:22:20;;;;;;;12.25;8.77;;;;;13.00;99065.00;;;;5051001;28;20051;-60
2023/04/19 08:24:48;;;;;;;11.32;8.93;;;;;12.90;99068.00;;;;5052439;28;20040;-60
2023/04/19 08:27:15;;;;;;;10.45;8.95;;;;;12.80;99062.00;;;;5052263;28;20040;-61
2023/04/19 08:29:42;;;;;;;12.70;9.32;;;;;12.70;99058.00;;;;5052275;28;20111;-62
2023/04/19 08:32:10;;;;;;;15.18;10.63;;;;;12.60;99063.00;;;;5050890;28;20056;-61
2023/04/19 08:34:38;;;;;;;13.02;9.65;;;;;12.60;99053.00;;;;5052148;28;20095;-60
2023/04/19 08:37:06;;;;;;;11.95;9.10;;;;;12.50;99060.00;;;;5052047;28;20124;-60
2023/04/19 08:39:33;;;;;;;10.40;8.57;;;;;12.50;99063.00;;;;5051821;28;20049;-61
2023/04/19 08:42:07;;;;;;;13.48;9.52;;;;;12.60;99060.00;;;;5051830;28;20052;-60
2023/04/19 08:44:50;;;;;;;13.45;10.05;;;;;12.50;99058.00;;;;5050976;28;20053;-60
2023/04/19 08:47:36;;;;;;;13.30;10.45;;;;;12.40;99054.00;;;;5050677;28;20498;-61
2023/04/19 08:50:22;;;;;;;12.05;10.38;;;;;12.50;99057.00;;;;5051656;28;20063;-61
2023/04/19 08:53:00;;;;;;;13.20;10.23;;;;;12.50;99054.00;;;;5052228;28;20128;-62
2023/04/19 08:55:47;;;;;;;16.90;11.73;;;;;12.40;99055.00;;;;5050705;28;20490;-62
2023/04/19 08:58:34;;;;;;;15.27;11.63;;;;;12.40;99050.00;;;;5051575;28;20045;-60
2023/04/19 09:01:04;;;;;;;16.02;12.02;;;;;12.30;99044.00;;;;5051619;28;20041;-60
2023/04/19 09:03:31;;;;;;;16.83;12.13;;;;;12.30;99048.00;;;;5051707;28;20123;-59
2023/04/19 09:06:13;;;;;;;14.98;12.00;;;;;12.40;99036.00;;;;5051766;28;20063;-59
2023/04/19 09:08:40;;;;;;;16.63;12.13;;;;;12.60;99032.00;;;;5051464;28;20052;-59
2023/04/19 09:11:08;;;;;;;14.70;11.50;;;;;12.80;99024.00;;;;5051406;28;20052;-61
2023/04/19 09:13:37;;;;;;;17.27;13.05;;;;;12.90;99031.00;;;;5051648;28;20045;-60
2023/04/19 09:16:04;;;;;;;15.13;11.30;;;;;13.30;99023.00;;;;5050362;28;20521;-60
2023/04/19 09:18:31;;;;;;;14.25;10.05;;;;;13.40;99026.00;;;;5051363;28;20044;-60
2023/04/19 09:21:03;;;;;;;13.75;10.27;;;;;13.60;99029.00;;;;5051531;28;20514;-59
2023/04/19 09:23:29;;;;;;;11.88;10.40;;;;;13.60;99025.00;;;;5051518;28;20049;-60
2023/04/19 09:26:01;;;;;;;13.88;10.82;;;;;13.50;99026.00;;;;5050277;28;20041;-60
2023/04/19 09:28:30;;;;;;;15.32;9.82;;;;;13.60;99015.00;;;;5051104;28;20044;-61
2023/04/19 09:30:57;;;;;;;13.35;10.27;;;;;13.80;99008.00;;;;5053542;28;20045;-60
2023/04/19 09:33:44;;;;;;;11.82;9.13;;;;;13.90;99014.00;;;;5055208;28;20052;-61
2023/04/19 09:36:26;;;;;;;13.88;9.30;;;;;14.00;99005.00;;;;5055358;28;20071;-60
2023/04/19 09:38:53;;;;;;;10.98;9.57;;;;;14.10;99004.00;;;;5054847;28;20480;-60
2023/04/19 09:41:20;;;;;;;11.95;9.13;;;;;14.20;99004.00;;;;5055191;28;20052;-61
2023/04/19 09:43:47;;;;;;;14.10;9.40;;;;;14.20;98997.00;;;;5055014;28;20053;-60
2023/04/19 09:46:28;;;;;;;11.45;9.50;;;;;14.30;98993.00;;;;5055083;28;20045;-61
2023/04/19 09:49:18;;;;;;;12.25;10.07;;;;;14.40;98990.00;;;;5054644;28;20037;-60
2023/04/19 09:52:04;;;;;;;10.57;8.65;;;;;14.40;98991.00;;;;5054823;28;20049;-60
2023/04/19 09:54:31;;;;;;;13.52;9.80;;;;;14.50;98989.00;;;;5054787;28;20069;-61
2023/04/19 09:56:59;;;;;;;14.52;8.70;;;;;14.50;98986.00;;;;5054708;28;20051;-60
2023/04/19 09:59:27;;;;;;;11.27;8.82;;;;;14.50;98990.00;;;;5053214;28;20041;-59
2023/04/19 10:01:55;;;;;;;10.77;8.63;;;;;14.40;98982.00;;;;5054744;28;20049;-59
2023/04/19 10:04:22;;;;;;;11.07;9.00;;;;;14.50;98985.00;;;;5054652;28;20037;-59
2023/04/19 10:07:08;;;;;;;11.25;8.27;;;;;14.40;98993.00;;;;5054660;28;20068;-58
2023/04/19 10:09:56;;;;;;;12.07;8.50;;;;;14.50;98992.00;;;;5054276;28;20170;-60
2023/04/19 10:12:38;;;;;;;11.20;7.75;;;;;14.40;98985.00;;;;5053197;28;20049;-60
2023/04/19 10:15:26;;;;;;;13.35;9.63;;;;;14.40;98979.00;;;;5054358;28;20395;-60
2023/04/19 10:18:08;;;;;;;12.63;8.43;;;;;14.50;98977.00;;;;5054425;28;20135;-61
2023/04/19 10:20:40;;;;;;;9.82;8.40;;;;;14.60;98986.00;;;;5054179;28;20079;-61
2023/04/19 10:23:08;;;;;;;12.05;8.48;;;;;14.60;98973.00;;;;5054259;28;20045;-61
2023/04/19 10:25:36;;;;;;;12.45;9.02;;;;;14.60;98979.00;;;;5054316;28;20098;-61
2023/04/19 10:28:03;;;;;;;11.77;8.13;;;;;14.70;98974.00;;;;5053975;28;20045;-61
2023/04/19 10:30:30;;;;;;;10.02;7.82;;;;;14.70;98975.00;;;;5053950;28;20099;-61
2023/04/19 10:32:59;;;;;;;9.93;7.78;;;;;14.70;98980.00;;;;5053865;28;20072;-60
2023/04/19 10:35:32;;;;;;;10.48;8.68;;;;;14.60;98986.00;;;;5052940;28;20041;-60
2023/04/19 10:38:05;;;;;;;9.13;7.57;;;;;14.60;98981.00;;;;5054095;28;20033;-61
2023/04/19 10:40:51;;;;;;;11.13;8.40;;;;;14.50;98981.00;;;;5053593;28;20509;-61
2023/04/19 10:43:18;;;;;;;12.90;9.25;;;;;14.30;98984.00;;;;5053992;28;20064;-62
2023/04/19 10:45:46;;;;;;;9.50;8.02;;;;;14.20;98981.00;;;;5054169;28;20037;-61
2023/04/19 10:48:34;;;;;;;11.60;8.73;;;;;14.10;98981.00;;;;5053944;28;20045;-63
2023/04/19 10:51:14;;;;;;;12.85;8.35;;;;;14.00;98982.00;;;;5052625;28;20469;-61
2023/04/19 10:53:46;;;;;;;12.45;9.18;;;;;13.80;98980.00;;;;5052446;28;20064;-62
2023/04/19 10:56:13;;;;;;;11.27;8.80;;;;;13.60;98981.00;;;;5052821;28;20048;-61
2023/04/19 10:58:59;;;;;;;9.43;7.90;;;;;13.50;98974.00;;;;5053598;28;20371;-62
2023/04/19 11:01:45;;;;;;;9.63;8.57;;;;;13.40;98971.00;;;;5053975;28;20581;-61
2023/04/19 11:04:22;;;;;;;14.05;8.32;;;;;13.40;98960.00;;;;5053771;28;20486;-61
2023/04/19 11:06:51;;;;;;;13.93;10.52;;;;;13.40;98958.00;;;;5052284;28;20080;-61
2023/04/19 11:09:25;;;;;;;9.30;7.15;;;;;13.50;98956.00;;;;5052028;28;20045;-61
2023/04/19 11:11:57;;;;;;;9.10;6.70;;;;;13.60;98953.00;;;;5053431;28;20044;-61
2023/04/19 11:14:24;;;;;;;9.82;7.65;;;;;13.70;98942.00;;;;5054060;28;20452;-64
2023/04/19 11:16:50;;;;;;;8.07;6.10;;;;;13.80;98951.00;;;;5053497;28;20317;-62
2023/04/19 11:19:18;;;;;;;10.18;6.90;;;;;14.00;98938.00;;;;5052985;28;20041;-61
2023/04/19 11:21:46;;;;;;;8.73;6.75;;;;;14.00;98944.00;;;;5053111;28;20041;-61
2023/04/19 11:24:14;;;;;;;8.68;6.70;;;;;14.20;98938.00;;;;5053257;28;20040;-61
2023/04/19 11:26:42;;;;;;;8.88;6.07;;;;;14.30;98939.00;;;;5053134;28;20051;-61
2023/04/19 11:29:09;;;;;;;7.03;5.80;;;;;14.30;98929.00;;;;5052801;28;20060;-60
2023/04/19 11:31:36;;;;;;;6.95;5.85;;;;;14.30;98922.00;;;;5053082;28;20110;-61
2023/04/19 11:34:03;;;;;;;9.35;5.50;;;;;14.40;98926.00;;;;5052886;28;20048;-60
2023/04/19 11:36:31;;;;;;;7.07;5.13;;;;;14.60;98925.00;;;;5053192;28;20044;-60
2023/04/19 11:38:57;;;;;;;7.28;5.40;;;;;14.80;98918.00;;;;5052748;28;20413;-60
2023/04/19 11:41:24;;;;;;;5.93;5.30;;;;;14.80;98912.00;;;;5052766;28;20041;-59
2023/04/19 11:43:50;;;;;;;6.82;5.35;;;;;14.90;98913.00;;;;5054747;28;20049;-60
2023/04/19 11:46:17;;;;;;;6.28;5.03;;;;;15.20;98914.00;;;;5055534;28;20494;-59
2023/04/19 11:48:51;;;;;;;7.15;5.60;;;;;15.30;98904.00;;;;5053472;28;20056;-60
2023/04/19 11:51:18;;;;;;;6.15;4.80;;;;;15.30;98906.00;;;;5055415;28;20041;-59
2023/04/19 11:53:45;;;;;;;7.55;5.50;;;;;15.30;98904.00;;;;5054655;28;20498;-60
2023/04/19 11:56:13;;;;;;;6.95;5.38;;;;;15.40;98900.00;;;;5055406;28;20041;-60
2023/04/19 11:58:43;;;;;;;9.85;5.55;;;;;15.40;98906.00;;;;5055673;28;20136;-60
2023/04/19 12:01:12;;;;;;;8.23;5.45;;;;;15.50;98902.00;;;;5055413;28;20045;-60
2023/04/19 12:03:43;;;;;;;5.90;5.15;;;;;15.70;98898.00;;;;5055739;28;20048;-60
2023/04/19 12:06:35;;;;;;;8.13;6.32;;;;;15.80;98900.00;;;;5055238;28;20049;-61
2023/04/19 12:09:07;;;;;;;6.78;5.32;;;;;15.70;98904.00;;;;5055522;28;20052;-59
2023/04/19 12:11:48;;;;;;;9.73;6.97;;;;;15.70;98899.00;;;;5056401;28;20048;-60
2023/04/19 12:14:21;;;;;;;10.55;6.50;;;;;15.50;98886.00;;;;5055905;28;20072;-61
2023/04/19 12:17:05;;;;;;;7.20;6.40;;;;;15.40;98882.00;;;;5055990;28;20037;-60
2023/04/19 12:19:43;;;;;;;8.70;6.18;;;;;15.40;98880.00;;;;5056325;28;20512;-60
2023/04/19 12:22:15;;;;;;;8.95;6.20;;;;;15.50;98878.00;;;;5052965;28;20047;-60